createdAt,value
2019-02-04T00:01:18.607Z,50.90
2019-02-04T00:03:25.762Z,43.27
2019-02-04T00:05:32.839Z,46.00
2019-02-04T00:07:40.018Z,44.80
2019-02-04T00:09:47.120Z,46.43
2019-02-04T00:11:54.218Z,41.40
2019-02-04T00:14:01.417Z,43.67
2019-02-04T00:16:09.129Z,42.03
2019-02-04T00:18:16.214Z,45.77
2019-02-04T00:20:23.242Z,42.70
2019-02-04T00:22:30.272Z,39.60
2019-02-04T00:24:37.396Z,41.33
2019-02-04T00:26:51.377Z,35.83
2019-02-04T00:28:53.361Z,45.60
2019-02-04T00:31:00.760Z,59.20
2019-02-04T00:33:07.871Z,42.70
2019-02-04T00:35:15.029Z,43.03
2019-02-04T00:37:22.256Z,40.43
2019-02-04T00:39:29.343Z,37.47
2019-02-04T00:41:36.408Z,42.57
2019-02-04T00:43:43.536Z,37.37
2019-02-04T00:45:51.283Z,41.67
2019-02-04T00:47:58.735Z,40.17
2019-02-04T00:50:06.243Z,42.30
2019-02-04T00:52:13.341Z,41.50
2019-02-04T00:54:20.427Z,41.43
2019-02-04T00:56:27.451Z,36.37
2019-02-04T00:58:34.532Z,37.83
2019-02-04T01:00:41.667Z,38.50
2019-02-04T01:02:48.738Z,36.17
2019-02-04T01:04:55.821Z,33.03
2019-02-04T01:07:02.862Z,28.13
2019-02-04T01:09:11.354Z,32.47
2019-02-04T01:11:18.385Z,30.40
2019-02-04T01:13:25.600Z,29.37
2019-02-04T01:15:32.732Z,24.53
2019-02-04T01:17:39.831Z,29.30
2019-02-04T01:19:46.876Z,25.20
2019-02-04T01:21:54.024Z,22.87
2019-02-04T01:24:01.204Z,29.50
2019-02-04T01:26:08.224Z,23.43
2019-02-04T01:28:15.621Z,44.33
2019-02-04T01:30:23.389Z,25.47
2019-02-04T01:32:31.411Z,26.47
2019-02-04T01:34:38.541Z,19.27
2019-02-04T01:36:45.659Z,23.33
2019-02-04T01:38:52.724Z,18.03
2019-02-04T01:40:59.819Z,17.13
2019-02-04T01:43:07.355Z,16.37
2019-02-04T01:45:14.378Z,19.73
2019-02-04T01:47:21.480Z,15.43
2019-02-04T01:49:28.635Z,17.93
2019-02-04T01:51:35.626Z,20.37
2019-02-04T01:53:42.847Z,33.73
2019-02-04T01:55:49.888Z,32.40
2019-02-04T01:57:58.444Z,27.93
2019-02-04T02:00:07.488Z,27.33
2019-02-04T02:02:14.651Z,21.60
2019-02-04T02:04:21.792Z,45.60
2019-02-04T02:06:29.113Z,28.83
2019-02-04T02:08:36.563Z,14.20
2019-02-04T02:10:43.779Z,27.10
2019-02-04T02:12:51.326Z,55.50
2019-02-04T02:14:58.434Z,30.43
2019-02-04T02:17:05.480Z,69.80
2019-02-04T02:19:12.511Z,169.87
2019-02-04T02:21:19.676Z,66.43
2019-02-04T02:23:26.828Z,26.50
2019-02-04T02:25:34.888Z,136.43
2019-02-04T02:27:42.582Z,40.00
2019-02-04T02:29:49.608Z,79.40
2019-02-04T02:31:56.679Z,69.20
2019-02-04T02:34:03.885Z,30.23
2019-02-04T02:36:11.347Z,17.23
2019-02-04T02:38:18.434Z,13.97
2019-02-04T02:40:35.983Z,17.23
2019-02-04T02:42:43.009Z,16.37
2019-02-04T02:44:50.104Z,15.00
2019-02-04T02:46:57.233Z,22.40
2019-02-04T02:49:04.206Z,17.23
2019-02-04T02:51:11.299Z,36.70
2019-02-04T02:53:18.292Z,23.27
2019-02-04T02:55:25.331Z,16.43
2019-02-04T02:57:32.807Z,25.57
2019-02-04T02:59:39.800Z,36.93
2019-02-04T03:01:46.796Z,17.30
2019-02-04T03:03:54.003Z,13.10
2019-02-04T03:06:01.084Z,9.63
2019-02-04T03:08:08.116Z,31.03
2019-02-04T03:10:22.139Z,25.27
2019-02-04T03:12:29.459Z,13.70
2019-02-04T03:14:36.528Z,36.47
2019-02-04T03:16:43.597Z,10.70
2019-02-04T03:18:50.657Z,22.10
2019-02-04T03:20:57.654Z,15.33
2019-02-04T03:23:04.770Z,11.00
2019-02-04T03:25:12.416Z,13.70
2019-02-04T03:27:19.911Z,14.73
2019-02-04T03:29:27.049Z,8.53
2019-02-04T03:31:34.135Z,7.97
2019-02-04T03:33:41.178Z,6.37
2019-02-04T03:35:48.284Z,8.80
2019-02-04T03:37:55.428Z,7.63
2019-02-04T03:40:02.399Z,6.37
2019-02-04T03:42:09.453Z,6.70
2019-02-04T03:44:16.454Z,6.43
2019-02-04T03:46:23.532Z,1.93
2019-02-04T03:48:30.669Z,4.13
2019-02-04T03:50:37.803Z,1.40
2019-02-04T03:52:44.932Z,1.20
2019-02-04T03:54:52.022Z,2.30
2019-02-04T03:56:59.098Z,1.97
2019-02-04T03:59:06.287Z,2.13
2019-02-04T04:01:13.418Z,5.67
2019-02-04T04:03:20.602Z,4.20
2019-02-04T04:05:27.664Z,6.83
2019-02-04T04:07:34.810Z,13.73
2019-02-04T04:09:42.305Z,17.93
2019-02-04T04:11:49.522Z,7.63
2019-02-04T04:13:56.712Z,8.80
2019-02-04T04:16:03.811Z,6.53
2019-02-04T04:18:15.861Z,6.50
2019-02-04T04:20:19.797Z,5.23
2019-02-04T04:22:26.984Z,5.13
2019-02-04T04:24:34.696Z,5.13
2019-02-04T04:26:41.760Z,6.07
2019-02-04T04:28:48.862Z,5.63
2019-02-04T04:30:55.942Z,5.53
2019-02-04T04:33:02.946Z,8.33
2019-02-04T04:35:10.069Z,16.90
2019-02-04T04:37:17.151Z,5.97
2019-02-04T04:39:24.643Z,3.77
2019-02-04T04:41:31.757Z,5.10
2019-02-04T04:43:38.851Z,3.17
2019-02-04T04:45:46.078Z,3.10
2019-02-04T04:47:53.139Z,2.00
2019-02-04T04:50:00.436Z,2.87
2019-02-04T04:52:07.664Z,2.90
2019-02-04T04:54:14.693Z,3.03
2019-02-04T04:56:21.749Z,2.97
2019-02-04T04:58:28.951Z,2.20
2019-02-04T05:00:36.188Z,5.37
2019-02-04T05:02:43.284Z,5.40
2019-02-04T05:04:50.298Z,3.87
2019-02-04T05:07:00.532Z,2.60
2019-02-04T05:09:08.608Z,4.03
2019-02-04T05:11:15.658Z,4.63
2019-02-04T05:13:22.810Z,6.97
2019-02-04T05:15:30.105Z,8.73
2019-02-04T05:17:37.170Z,40.87
2019-02-04T05:19:44.235Z,12.37
2019-02-04T05:21:51.642Z,6.83
2019-02-04T05:23:58.790Z,6.57
2019-02-04T05:26:06.062Z,6.17
2019-02-04T05:28:14.303Z,4.80
2019-02-04T05:30:23.232Z,5.70
2019-02-04T05:32:30.407Z,6.57
2019-02-04T05:34:38.561Z,4.57
2019-02-04T05:36:45.690Z,5.53
2019-02-04T05:38:52.872Z,6.53
2019-02-04T05:41:01.057Z,6.17
2019-02-04T05:43:08.260Z,7.27
2019-02-04T05:45:17.756Z,5.50
2019-02-04T05:47:24.889Z,3.83
2019-02-04T05:49:31.873Z,6.23
2019-02-04T05:51:39.451Z,3.33
2019-02-04T05:53:46.809Z,5.97
2019-02-04T05:55:53.863Z,7.33
2019-02-04T05:58:01.146Z,6.33
2019-02-04T06:00:10.600Z,7.63
2019-02-04T06:02:17.684Z,4.53
2019-02-04T06:04:25.035Z,4.60
2019-02-04T06:06:32.351Z,5.30
2019-02-04T06:08:39.566Z,4.60
2019-02-04T06:10:46.777Z,5.97
2019-02-04T06:12:54.101Z,4.20
2019-02-04T06:15:01.441Z,5.07
2019-02-04T06:17:08.826Z,6.70
2019-02-04T06:19:15.932Z,5.50
2019-02-04T06:21:23.797Z,15.77
2019-02-04T06:23:31.389Z,8.17
2019-02-04T06:25:39.096Z,5.20
2019-02-04T06:27:46.241Z,5.70
2019-02-04T06:29:53.359Z,6.67
2019-02-04T06:32:00.484Z,76.80
2019-02-04T06:34:07.662Z,15.37
2019-02-04T06:36:15.136Z,9.73
2019-02-04T06:38:22.462Z,7.23
2019-02-04T06:40:29.580Z,4.40
2019-02-04T06:42:36.986Z,5.23
2019-02-04T06:44:44.156Z,6.23
2019-02-04T06:46:51.387Z,6.07
2019-02-04T06:48:58.781Z,9.07
2019-02-04T06:51:06.187Z,5.63
2019-02-04T06:53:14.464Z,6.77
2019-02-04T06:55:31.240Z,6.27
2019-02-04T06:57:38.637Z,8.17
2019-02-04T06:59:45.947Z,5.90
2019-02-04T07:01:53.054Z,7.33
2019-02-04T07:04:00.222Z,6.37
2019-02-04T07:06:07.779Z,6.53
2019-02-04T07:08:14.853Z,7.67
2019-02-04T07:10:24.085Z,6.63
2019-02-04T07:12:31.515Z,6.13
2019-02-04T07:14:38.832Z,5.77
2019-02-04T07:16:46.390Z,8.77
2019-02-04T07:18:53.727Z,6.83
2019-02-04T07:21:01.065Z,5.10
2019-02-04T07:23:08.186Z,7.43
2019-02-04T07:25:15.331Z,4.97
2019-02-04T07:27:22.718Z,8.40
2019-02-04T07:29:30.269Z,12.03
2019-02-04T07:31:37.362Z,7.50
2019-02-04T07:33:44.566Z,8.03
2019-02-04T07:35:51.638Z,7.23
2019-02-04T07:37:58.783Z,7.17
2019-02-04T07:40:08.465Z,6.50
2019-02-04T07:42:15.902Z,8.00
2019-02-04T07:44:23.070Z,7.30
2019-02-04T07:46:30.295Z,9.77
2019-02-04T07:48:37.841Z,10.80
2019-02-04T07:50:44.966Z,10.77
2019-02-04T07:52:52.027Z,10.20
2019-02-04T07:54:59.312Z,10.27
2019-02-04T07:57:06.545Z,11.37
2019-02-04T07:59:14.343Z,10.07
2019-02-04T08:01:21.550Z,9.53
2019-02-04T08:03:29.185Z,12.70
2019-02-04T08:05:36.449Z,11.43
2019-02-04T08:07:44.400Z,12.60
2019-02-04T08:09:52.922Z,11.83
2019-02-04T08:12:00.366Z,12.37
2019-02-04T08:14:07.755Z,13.17
2019-02-04T08:16:14.957Z,13.00
2019-02-04T08:18:22.593Z,12.17
2019-02-04T08:20:29.798Z,11.17
2019-02-04T08:22:36.906Z,13.27
2019-02-04T08:24:44.017Z,13.63
2019-02-04T08:26:51.275Z,13.50
2019-02-04T08:28:58.939Z,14.00
2019-02-04T08:31:06.347Z,16.40
2019-02-04T08:33:13.507Z,15.67
2019-02-04T08:35:20.650Z,14.87
2019-02-04T08:37:28.959Z,16.40
2019-02-04T08:39:36.386Z,16.70
2019-02-04T08:41:43.682Z,17.30
2019-02-04T08:43:51.292Z,25.40
2019-02-04T08:45:59.147Z,23.43
2019-02-04T08:48:06.831Z,49.97
2019-02-04T08:50:16.869Z,23.13
2019-02-04T08:52:24.013Z,28.17
2019-02-04T08:54:31.208Z,20.13
2019-02-04T08:56:38.297Z,19.67
2019-02-04T08:58:45.388Z,15.73
2019-02-04T09:00:52.528Z,16.87
2019-02-04T09:02:59.945Z,17.00
2019-02-04T09:05:07.737Z,16.17
2019-02-04T09:07:14.976Z,17.13
2019-02-04T09:09:22.209Z,37.90
2019-02-04T09:11:29.579Z,19.43
2019-02-04T09:13:37.286Z,17.03
2019-02-04T09:15:44.816Z,13.40
2019-02-04T09:17:51.970Z,18.07
2019-02-04T09:20:09.743Z,17.50
2019-02-04T09:22:11.518Z,18.53
2019-02-04T09:24:18.685Z,18.30
2019-02-04T09:26:25.796Z,12.87
2019-02-04T09:28:32.978Z,16.77
2019-02-04T09:30:40.127Z,16.90
2019-02-04T09:32:47.270Z,13.87
2019-02-04T09:34:54.704Z,15.30
2019-02-04T09:37:01.857Z,14.00
2019-02-04T09:39:11.411Z,34.23
2019-02-04T09:41:18.801Z,38.27
2019-02-04T09:43:25.962Z,30.43
2019-02-04T09:45:33.092Z,20.27
2019-02-04T09:47:40.251Z,35.10
2019-02-04T09:49:47.438Z,31.43
2019-02-04T09:51:54.625Z,28.90
2019-02-04T09:54:01.712Z,19.57
2019-02-04T09:56:09.095Z,20.07
2019-02-04T09:58:16.529Z,19.87
2019-02-04T10:00:26.839Z,16.67
2019-02-04T10:02:34.002Z,15.13
2019-02-04T10:04:41.202Z,16.20
2019-02-04T10:06:48.260Z,19.57
2019-02-04T10:08:55.622Z,18.67
2019-02-04T10:11:02.767Z,22.30
2019-02-04T10:13:10.027Z,19.77
2019-02-04T10:15:21.295Z,23.70
2019-02-04T10:17:28.548Z,21.23
2019-02-04T10:19:35.793Z,23.27
2019-02-04T10:21:42.984Z,23.83
2019-02-04T10:23:50.362Z,41.10
2019-02-04T10:25:59.083Z,56.03
2019-02-04T10:28:09.000Z,56.43
2019-02-04T10:30:19.683Z,56.97
2019-02-04T10:32:27.670Z,61.07
2019-02-04T10:34:35.089Z,39.13
2019-02-04T10:36:42.921Z,107.17
2019-02-04T10:38:50.864Z,72.20
2019-02-04T10:40:58.328Z,44.40
2019-02-04T10:43:05.753Z,20.20
2019-02-04T10:45:13.439Z,32.80
2019-02-04T10:47:20.655Z,43.60
2019-02-04T10:49:27.902Z,33.27
2019-02-04T10:51:35.416Z,25.27
2019-02-04T10:53:42.838Z,41.33
2019-02-04T10:55:50.364Z,54.73
2019-02-04T10:57:57.681Z,38.20
2019-02-04T11:00:05.579Z,32.33
2019-02-04T11:02:12.893Z,28.27
2019-02-04T11:04:20.200Z,19.57
2019-02-04T11:06:27.540Z,23.00
2019-02-04T11:08:34.771Z,35.40
2019-02-04T11:10:42.259Z,28.77
2019-02-04T11:12:49.629Z,37.20
2019-02-04T11:14:56.963Z,25.70
2019-02-04T11:17:04.580Z,16.07
2019-02-04T11:19:12.044Z,18.87
2019-02-04T11:21:19.472Z,21.30
2019-02-04T11:23:29.067Z,19.93
2019-02-04T11:25:36.090Z,16.83
2019-02-04T11:27:43.389Z,18.83
2019-02-04T11:29:50.731Z,19.50
2019-02-04T11:31:59.187Z,18.97
2019-02-04T11:34:06.412Z,17.40
2019-02-04T11:36:13.665Z,23.20
2019-02-04T11:38:20.966Z,26.50
2019-02-04T11:40:35.177Z,20.27
2019-02-04T11:42:42.449Z,24.73
2019-02-04T11:44:49.918Z,25.50
2019-02-04T11:46:57.354Z,29.27
2019-02-04T11:49:04.865Z,24.63
2019-02-04T11:51:12.031Z,22.33
2019-02-04T11:53:19.268Z,23.40
2019-02-04T11:55:27.398Z,51.27
2019-02-04T11:57:35.441Z,30.53
2019-02-04T11:59:43.134Z,38.43
2019-02-04T12:01:50.772Z,21.73
2019-02-04T12:03:58.243Z,30.00
2019-02-04T12:06:05.515Z,33.00
2019-02-04T12:08:14.456Z,26.70
2019-02-04T12:10:53.371Z,29.50
2019-02-04T12:13:00.527Z,24.30
2019-02-04T12:15:12.369Z,20.57
2019-02-04T12:17:19.482Z,26.50
2019-02-04T12:19:26.750Z,22.47
2019-02-04T12:21:34.103Z,30.20
2019-02-04T12:23:41.651Z,28.07
2019-02-04T12:25:48.801Z,28.17
2019-02-04T12:27:56.227Z,27.67
2019-02-04T12:30:03.849Z,26.00
2019-02-04T12:32:11.735Z,33.13
2019-02-04T12:34:19.433Z,35.80
2019-02-04T12:36:27.065Z,28.57
2019-02-04T12:38:34.576Z,29.30
2019-02-04T12:40:42.010Z,27.23
2019-02-04T12:42:49.286Z,31.00
2019-02-04T12:44:57.061Z,25.57
2019-02-04T12:47:05.055Z,24.83
2019-02-04T12:49:12.275Z,28.77
2019-02-04T12:51:19.382Z,19.93
2019-02-04T12:53:26.529Z,21.97
2019-02-04T12:55:33.757Z,36.13
2019-02-04T12:57:40.865Z,23.63
2019-02-04T12:59:47.909Z,32.57
2019-02-04T13:01:55.110Z,28.47
2019-02-04T13:04:02.103Z,38.43
2019-02-04T13:06:11.381Z,36.70
2019-02-04T13:08:18.558Z,46.20
2019-02-04T13:10:25.816Z,41.33
2019-02-04T13:12:33.367Z,37.20
2019-02-04T13:14:40.744Z,26.77
2019-02-04T13:16:47.796Z,24.97
2019-02-04T13:18:54.937Z,19.63
2019-02-04T13:21:47.773Z,21.07
2019-02-04T13:23:56.639Z,22.50
2019-02-04T13:26:04.019Z,22.17
2019-02-04T13:28:42.764Z,25.33
2019-02-04T13:30:57.919Z,22.57
2019-02-04T13:33:04.937Z,24.03
2019-02-04T13:35:12.830Z,27.23
2019-02-04T13:37:20.173Z,25.70
2019-02-04T13:39:27.476Z,20.63
2019-02-04T13:41:34.897Z,31.10
2019-02-04T13:43:43.358Z,24.27
2019-02-04T13:45:50.677Z,26.90
2019-02-04T13:47:58.060Z,33.83
2019-02-04T13:50:06.135Z,35.30
2019-02-04T13:52:15.365Z,21.57
2019-02-04T13:54:22.384Z,33.70
2019-02-04T13:56:29.542Z,32.77
2019-02-04T13:58:36.934Z,49.80
2019-02-04T14:00:44.026Z,39.00
2019-02-04T14:02:58.975Z,59.93
2019-02-04T14:04:59.892Z,41.30
2019-02-04T14:07:07.066Z,63.47
2019-02-04T14:09:19.985Z,47.33
2019-02-04T14:11:27.183Z,39.77
2019-02-04T14:13:34.345Z,35.50
2019-02-04T14:15:42.503Z,30.47
2019-02-04T14:17:49.553Z,41.20
2019-02-04T14:19:56.670Z,44.03
2019-02-04T14:22:09.375Z,36.00
2019-02-04T14:24:12.625Z,33.47
2019-02-04T14:26:19.814Z,34.90
2019-02-04T14:28:26.986Z,33.17
2019-02-04T14:30:36.479Z,29.80
2019-02-04T14:32:43.673Z,28.67
2019-02-04T14:34:51.413Z,29.50
2019-02-04T14:36:58.640Z,30.33
2019-02-04T14:39:07.381Z,30.50
2019-02-04T14:41:14.635Z,34.90
2019-02-04T14:43:41.292Z,32.03
2019-02-04T14:46:33.796Z,35.43
2019-02-04T14:49:52.694Z,40.10
2019-02-04T14:52:28.382Z,35.23
2019-02-04T14:55:51.209Z,42.47
2019-02-04T14:58:37.615Z,55.20
2019-02-04T15:01:39.681Z,31.73
2019-02-04T15:04:45.051Z,35.43
2019-02-04T15:08:15.794Z,49.43
2019-02-04T15:11:30.219Z,82.90
2019-02-04T15:14:33.039Z,34.73
2019-02-04T15:17:10.874Z,34.77
2019-02-04T15:20:10.785Z,42.83
2019-02-04T15:23:00.008Z,48.07
2019-02-04T15:26:31.402Z,40.40
2019-02-04T15:29:29.327Z,35.00
2019-02-04T15:32:29.609Z,39.33
2019-02-04T15:35:37.144Z,48.27
2019-02-04T15:38:46.534Z,55.73
2019-02-04T15:41:27.956Z,38.67
2019-02-04T15:44:37.256Z,58.40
2019-02-04T15:47:11.102Z,64.30
2019-02-04T15:50:15.701Z,58.23
2019-02-04T15:52:23.239Z,55.63
2019-02-04T15:54:30.861Z,64.57
2019-02-04T15:56:38.283Z,61.40
2019-02-04T15:58:45.564Z,60.70
2019-02-04T16:00:52.680Z,46.87
2019-02-04T16:02:59.740Z,51.73
2019-02-04T16:05:08.198Z,41.30
2019-02-04T16:07:16.216Z,45.67
2019-02-04T16:09:23.523Z,55.47
2019-02-04T16:11:30.806Z,53.00
2019-02-04T16:13:37.886Z,39.57
2019-02-04T16:15:45.072Z,48.70
2019-02-04T16:17:52.332Z,62.90
2019-02-04T16:19:59.800Z,36.43
2019-02-04T16:22:07.039Z,32.03
2019-02-04T16:24:14.339Z,41.97
2019-02-04T16:26:21.690Z,34.87
2019-02-04T16:28:29.232Z,51.90
2019-02-04T16:30:36.462Z,62.90
2019-02-04T16:32:44.190Z,37.00
2019-02-04T16:34:51.896Z,33.67
2019-02-04T16:36:59.179Z,38.13
2019-02-04T16:39:10.986Z,44.97
2019-02-04T16:41:18.187Z,49.83
2019-02-04T16:43:25.499Z,51.07
2019-02-04T16:45:32.615Z,42.37
2019-02-04T16:47:39.857Z,38.20
2019-02-04T16:49:47.386Z,28.63
2019-02-04T16:51:54.866Z,36.67
2019-02-04T16:54:03.092Z,33.20
2019-02-04T16:56:11.715Z,46.57
2019-02-04T16:58:19.816Z,70.23
2019-02-04T17:00:32.093Z,77.97
2019-02-04T17:02:39.425Z,75.77
2019-02-04T17:04:46.953Z,56.27
2019-02-04T17:06:54.145Z,54.20
2019-02-04T17:09:02.321Z,60.07
2019-02-04T17:11:09.765Z,68.83
2019-02-04T17:13:16.999Z,79.60
2019-02-04T17:15:25.699Z,41.93
2019-02-04T17:17:33.267Z,53.43
2019-02-04T17:19:40.857Z,48.93
2019-02-04T17:21:48.219Z,40.77
2019-02-04T17:23:55.367Z,48.43
2019-02-04T17:26:02.606Z,67.63
2019-02-04T17:28:09.864Z,78.40
2019-02-04T17:30:20.458Z,60.27
2019-02-04T17:32:27.776Z,56.00
2019-02-04T17:34:35.470Z,47.80
2019-02-04T17:36:42.886Z,70.43
2019-02-04T17:38:50.018Z,51.63
2019-02-04T17:40:57.291Z,57.37
2019-02-04T17:43:05.121Z,60.90
2019-02-04T17:45:13.634Z,52.37
2019-02-04T17:47:20.807Z,64.00
2019-02-04T17:49:28.223Z,67.10
2019-02-04T17:51:35.763Z,72.63
2019-02-04T17:53:42.949Z,70.87
2019-02-04T17:55:50.121Z,79.00
2019-02-04T17:57:57.209Z,79.90
2019-02-04T18:00:06.064Z,54.00
2019-02-04T18:02:13.677Z,78.03
2019-02-04T18:04:20.795Z,88.73
2019-02-04T18:06:27.858Z,49.67
2019-02-04T18:08:35.036Z,45.93
2019-02-04T18:10:42.200Z,39.97
2019-02-04T18:12:49.496Z,44.97
2019-02-04T18:14:56.678Z,51.20
2019-02-04T18:17:04.360Z,66.73
2019-02-04T18:19:11.676Z,49.37
2019-02-04T18:21:18.923Z,58.47
2019-02-04T18:23:26.222Z,53.57
2019-02-04T18:25:33.792Z,55.33
2019-02-04T18:27:41.044Z,57.33
2019-02-04T18:29:48.342Z,53.20
2019-02-04T18:31:55.952Z,63.97
2019-02-04T18:34:03.109Z,72.67
2019-02-04T18:36:10.414Z,72.47
2019-02-04T18:38:17.559Z,98.63
2019-02-04T18:40:25.224Z,82.63
2019-02-04T18:42:32.973Z,55.70
2019-02-04T18:44:40.137Z,42.80
2019-02-04T18:46:47.379Z,29.80
2019-02-04T18:48:54.658Z,25.13
2019-02-04T18:51:01.916Z,28.13
2019-02-04T18:53:09.296Z,42.90
2019-02-04T18:55:20.001Z,39.90
2019-02-04T18:57:27.264Z,31.07
2019-02-04T18:59:34.545Z,40.67
2019-02-04T19:01:42.016Z,22.80
2019-02-04T19:03:50.465Z,12.13
2019-02-04T19:05:57.903Z,17.07
2019-02-04T19:08:05.184Z,15.63
2019-02-04T19:10:14.649Z,34.10
2019-02-04T19:12:21.899Z,36.57
2019-02-04T19:14:29.034Z,37.83
2019-02-04T19:16:36.213Z,43.07
2019-02-04T19:18:43.410Z,35.03
2019-02-04T19:20:50.739Z,53.70
2019-02-04T19:22:58.950Z,41.60
2019-02-04T19:25:07.578Z,52.73
2019-02-04T19:27:14.783Z,63.00
2019-02-04T19:29:22.265Z,25.17
2019-02-04T19:31:32.064Z,27.90
2019-02-04T19:33:39.763Z,32.00
2019-02-04T19:35:47.147Z,25.17
2019-02-04T19:37:54.362Z,22.90
2019-02-04T19:40:01.610Z,26.57
2019-02-04T19:42:09.329Z,24.23
2019-02-04T19:44:16.768Z,25.27
2019-02-04T19:46:25.829Z,20.43
2019-02-04T19:48:33.161Z,23.97
2019-02-04T19:50:40.507Z,25.37
2019-02-04T19:52:47.760Z,25.43
2019-02-04T19:54:55.037Z,16.47
2019-02-04T19:57:02.545Z,14.60
2019-02-04T19:59:10.042Z,30.13
2019-02-04T20:01:18.357Z,25.50
2019-02-04T20:03:25.816Z,37.07
2019-02-04T20:05:33.492Z,39.53
2019-02-04T20:07:41.117Z,40.43
2019-02-04T20:09:49.019Z,35.73
2019-02-04T20:11:57.036Z,63.20
2019-02-04T20:14:06.544Z,65.97
2019-02-04T20:16:17.551Z,21.37
2019-02-04T20:18:25.378Z,50.23
2019-02-04T20:20:32.906Z,63.47
2019-02-04T20:22:40.605Z,19.70
2019-02-04T20:24:48.254Z,32.63
2019-02-04T20:26:55.654Z,55.83
2019-02-04T20:29:03.079Z,51.47
2019-02-04T20:31:11.001Z,14.23
2019-02-04T20:33:18.267Z,14.87
2019-02-04T20:35:25.603Z,13.10
2019-02-04T20:37:33.522Z,14.63
2019-02-04T20:39:41.364Z,16.90
2019-02-04T20:41:48.940Z,17.93
2019-02-04T20:43:56.844Z,17.87
2019-02-04T20:46:04.168Z,23.23
2019-02-04T20:48:14.638Z,30.30
2019-02-04T20:50:28.287Z,44.10
2019-02-04T20:52:35.592Z,33.40
2019-02-04T20:54:44.975Z,38.60
2019-02-04T20:56:52.066Z,59.43
2019-02-04T20:58:59.407Z,34.03
2019-02-04T21:01:07.548Z,23.23
2019-02-04T21:03:14.852Z,43.57
2019-02-04T21:05:22.424Z,63.07
2019-02-04T21:07:30.268Z,72.30
2019-02-04T21:09:37.573Z,189.33
2019-02-04T21:11:44.861Z,166.07
2019-02-04T21:13:52.236Z,104.20
2019-02-04T21:15:59.584Z,87.87
2019-02-04T21:18:06.933Z,51.73
2019-02-04T21:20:17.809Z,61.87
2019-02-04T21:22:30.539Z,73.47
2019-02-04T21:24:37.662Z,54.83
2019-02-04T21:27:02.833Z,82.73
2019-02-04T21:29:09.981Z,70.43
2019-02-04T21:31:17.145Z,54.40
2019-02-04T21:33:24.377Z,42.47
2019-02-04T21:35:31.965Z,59.10
2019-02-04T21:37:39.310Z,42.03
2019-02-04T21:39:46.488Z,57.43
2019-02-04T21:41:53.782Z,65.00
2019-02-04T21:44:00.867Z,103.73
2019-02-04T21:46:08.206Z,51.67
2019-02-04T21:48:15.532Z,44.97
2019-02-04T21:50:24.752Z,52.20
2019-02-04T21:52:32.283Z,32.30
2019-02-04T21:54:39.395Z,52.97
2019-02-04T21:56:46.666Z,46.40
2019-02-04T21:58:54.139Z,47.27
2019-02-04T22:01:01.639Z,38.00
2019-02-04T22:03:09.110Z,39.33
2019-02-04T22:05:17.938Z,34.83
2019-02-04T22:07:25.112Z,36.80
2019-02-04T22:09:32.451Z,27.40
2019-02-04T22:11:40.284Z,35.00
2019-02-04T22:13:47.719Z,34.57
2019-02-04T22:15:54.835Z,27.63
2019-02-04T22:18:02.109Z,30.43
2019-02-04T22:20:10.324Z,28.03
2019-02-04T22:22:17.617Z,22.10
2019-02-04T22:24:24.933Z,39.27
2019-02-04T22:26:32.189Z,32.37
2019-02-04T22:28:39.549Z,31.87
2019-02-04T22:30:46.669Z,28.53
2019-02-04T22:32:53.926Z,27.13
2019-02-04T22:35:01.062Z,30.57
2019-02-04T22:37:08.203Z,28.93
2019-02-04T22:39:15.489Z,24.17
2019-02-04T22:41:22.727Z,21.93
2019-02-04T22:43:29.827Z,18.73
2019-02-04T22:45:36.958Z,20.73
2019-02-04T22:47:44.295Z,18.87
2019-02-04T22:49:51.467Z,21.30
2019-02-04T22:51:58.637Z,33.97
2019-02-04T22:54:05.784Z,30.63
2019-02-04T22:56:13.040Z,30.90
2019-02-04T22:58:20.657Z,28.53
2019-02-04T23:00:50.260Z,26.80
2019-02-04T23:02:57.620Z,22.77
2019-02-04T23:05:04.989Z,29.03
2019-02-04T23:07:12.465Z,22.73
2019-02-04T23:09:19.554Z,24.87
2019-02-04T23:11:26.685Z,25.70
2019-02-04T23:13:34.286Z,27.57
2019-02-04T23:15:41.713Z,22.90
2019-02-04T23:17:49.586Z,26.93
2019-02-04T23:19:57.114Z,26.80
2019-02-04T23:22:04.628Z,33.70
2019-02-04T23:24:12.137Z,33.07
2019-02-04T23:26:19.211Z,38.80
2019-02-04T23:28:26.322Z,47.17
2019-02-04T23:30:33.707Z,38.93
2019-02-04T23:32:41.262Z,38.97
2019-02-04T23:34:48.371Z,33.33
2019-02-04T23:36:55.897Z,28.87
2019-02-04T23:39:04.152Z,26.63
2019-02-04T23:41:11.276Z,35.13
2019-02-04T23:43:18.423Z,34.23
2019-02-04T23:45:25.661Z,29.23
2019-02-04T23:47:32.747Z,30.33
2019-02-04T23:49:40.040Z,24.47
2019-02-04T23:51:47.530Z,26.33
2019-02-04T23:53:54.925Z,20.83
2019-02-04T23:56:02.043Z,20.27
2019-02-04T23:58:09.095Z,20.70
